createdAt,value
2019-05-03T00:00:59.383Z,9.20
2019-05-03T00:03:27.649Z,9.10
2019-05-03T00:05:59.125Z,8.90
2019-05-03T00:08:27.430Z,8.90
2019-05-03T00:10:56.351Z,8.90
2019-05-03T00:13:24.612Z,8.80
2019-05-03T00:15:58.539Z,8.90
2019-05-03T00:18:26.748Z,8.80
2019-05-03T00:20:55.187Z,8.80
2019-05-03T00:23:23.442Z,8.80
2019-05-03T00:25:52.360Z,8.80
2019-05-03T00:28:21.706Z,8.90
2019-05-03T00:30:51.839Z,8.90
2019-05-03T00:33:22.493Z,8.80
2019-05-03T00:36:16.251Z,8.80
2019-05-03T00:38:44.471Z,8.90
2019-05-03T00:41:12.679Z,8.90
2019-05-03T00:43:42.397Z,8.90
2019-05-03T00:46:12.648Z,8.80
2019-05-03T00:48:42.886Z,8.90
2019-05-03T00:51:11.761Z,8.90
2019-05-03T00:53:40.087Z,8.80
2019-05-03T00:56:08.320Z,8.80
2019-05-03T00:58:49.759Z,8.70
2019-05-03T01:01:18.031Z,8.60
2019-05-03T01:03:46.304Z,8.70
2019-05-03T01:06:14.574Z,8.80
2019-05-03T01:08:42.812Z,8.90
2019-05-03T01:11:12.643Z,8.90
2019-05-03T01:13:42.323Z,8.90
2019-05-03T01:16:16.123Z,8.90
2019-05-03T01:18:44.406Z,9.00
2019-05-03T01:21:13.548Z,8.80
2019-05-03T01:23:42.243Z,8.70
2019-05-03T01:26:11.858Z,8.70
2019-05-03T01:28:40.347Z,8.60
2019-05-03T01:31:08.562Z,8.50
2019-05-03T01:33:36.787Z,8.50
2019-05-03T01:36:05.163Z,8.50
2019-05-03T01:38:33.426Z,8.50
2019-05-03T01:41:01.873Z,8.60
2019-05-03T01:43:31.781Z,8.50
2019-05-03T01:46:02.525Z,8.50
2019-05-03T01:48:41.639Z,8.40
2019-05-03T01:51:16.930Z,8.40
2019-05-03T01:53:45.295Z,8.40
2019-05-03T01:56:13.539Z,8.30
2019-05-03T01:58:41.804Z,8.20
2019-05-03T02:01:31.891Z,8.20
2019-05-03T02:04:14.848Z,8.10
2019-05-03T02:06:43.202Z,8.10
2019-05-03T02:09:12.236Z,8.10
2019-05-03T02:11:42.153Z,8.30
2019-05-03T02:14:12.387Z,8.30
2019-05-03T02:16:42.023Z,8.30
2019-05-03T02:19:12.514Z,8.40
2019-05-03T02:21:41.652Z,8.50
2019-05-03T02:24:11.940Z,8.50
2019-05-03T02:26:42.325Z,8.50
2019-05-03T02:29:12.436Z,8.30
2019-05-03T02:31:43.346Z,8.30
2019-05-03T02:34:12.406Z,8.30
2019-05-03T02:36:42.538Z,8.20
2019-05-03T02:39:13.526Z,8.10
2019-05-03T02:41:42.099Z,8.00
2019-05-03T02:44:10.676Z,8.00
2019-05-03T02:47:10.010Z,8.00
2019-05-03T02:49:51.448Z,8.10
2019-05-03T02:52:36.626Z,8.10
2019-05-03T02:55:08.707Z,8.10
2019-05-03T02:57:36.969Z,8.20
2019-05-03T03:00:06.969Z,8.20
2019-05-03T03:02:36.539Z,8.10
2019-05-03T03:05:05.755Z,8.10
2019-05-03T03:07:37.485Z,8.10
2019-05-03T03:10:05.413Z,8.10
2019-05-03T03:12:35.588Z,8.10
2019-05-03T03:15:06.193Z,8.00
2019-05-03T03:17:36.363Z,8.10
2019-05-03T03:20:05.671Z,8.10
2019-05-03T03:22:36.330Z,8.10
2019-05-03T03:25:07.277Z,8.20
2019-05-03T03:27:37.000Z,8.20
2019-05-03T03:30:28.779Z,8.20
2019-05-03T03:32:57.814Z,8.10
2019-05-03T03:35:29.860Z,8.10
2019-05-03T03:37:58.367Z,8.10
2019-05-03T03:40:28.078Z,8.20
2019-05-03T03:42:56.915Z,8.30
2019-05-03T03:45:25.538Z,8.10
2019-05-03T03:47:56.331Z,8.00
2019-05-03T03:50:25.876Z,8.00
2019-05-03T03:52:55.743Z,8.00
2019-05-03T03:55:26.600Z,8.10
2019-05-03T03:57:55.732Z,8.10
2019-05-03T04:00:25.874Z,8.00
2019-05-03T04:02:55.229Z,8.00
2019-05-03T04:05:25.346Z,8.00
2019-05-03T04:07:56.096Z,8.00
2019-05-03T04:10:26.080Z,8.00
2019-05-03T04:12:55.887Z,8.10
2019-05-03T04:15:58.158Z,8.10
2019-05-03T04:18:46.095Z,8.10
2019-05-03T04:21:16.238Z,8.00
2019-05-03T04:23:45.846Z,7.90
2019-05-03T04:26:16.339Z,7.90
2019-05-03T04:28:45.373Z,7.90
2019-05-03T04:31:15.294Z,8.00
2019-05-03T04:33:45.087Z,8.00
2019-05-03T04:36:15.909Z,8.00
2019-05-03T04:38:45.381Z,7.90
2019-05-03T04:41:15.916Z,7.90
2019-05-03T04:43:45.833Z,7.80
2019-05-03T04:46:25.928Z,7.80
2019-05-03T04:48:56.088Z,7.70
2019-05-03T04:51:25.823Z,7.70
2019-05-03T04:54:16.101Z,7.70
2019-05-03T04:56:46.196Z,7.80
2019-05-03T04:59:15.996Z,7.80
2019-05-03T05:01:46.051Z,7.80
2019-05-03T05:04:15.916Z,8.00
2019-05-03T05:06:45.085Z,7.90
2019-05-03T05:09:15.669Z,7.90
2019-05-03T05:11:45.906Z,7.80
2019-05-03T05:14:15.285Z,7.80
2019-05-03T05:16:46.581Z,7.70
2019-05-03T05:19:16.477Z,7.80
2019-05-03T05:21:48.278Z,7.90
2019-05-03T05:24:16.583Z,7.80
2019-05-03T05:26:56.870Z,7.80
2019-05-03T05:29:27.303Z,7.90
2019-05-03T05:31:55.689Z,7.90
2019-05-03T05:34:24.564Z,8.00
2019-05-03T05:36:53.008Z,7.90
2019-05-03T05:39:21.262Z,7.90
2019-05-03T05:41:49.472Z,7.80
2019-05-03T05:44:17.726Z,7.90
2019-05-03T05:46:57.606Z,7.90
2019-05-03T05:50:00.190Z,8.00
2019-05-03T05:52:28.419Z,8.00
2019-05-03T05:55:18.479Z,8.00
2019-05-03T05:58:02.954Z,8.10
2019-05-03T06:00:29.200Z,8.10
2019-05-03T06:02:57.475Z,8.20
2019-05-03T06:05:25.802Z,8.30
2019-05-03T06:08:07.572Z,8.50
2019-05-03T06:10:45.126Z,8.40
2019-05-03T06:13:23.447Z,8.40
2019-05-03T06:16:10.766Z,8.40
2019-05-03T06:19:01.787Z,8.20
2019-05-03T06:21:35.271Z,8.30
2019-05-03T06:24:09.443Z,8.30
2019-05-03T06:26:45.634Z,8.30
2019-05-03T06:29:14.943Z,8.40
2019-05-03T06:31:55.060Z,8.40
2019-05-03T06:34:25.115Z,8.40
2019-05-03T06:36:55.326Z,8.40
2019-05-03T06:39:24.902Z,8.30
2019-05-03T06:41:55.080Z,8.50
2019-05-03T06:44:24.743Z,8.60
2019-05-03T06:46:55.107Z,8.80
2019-05-03T06:49:25.540Z,9.00
2019-05-03T06:51:54.665Z,8.90
2019-05-03T06:54:26.894Z,9.00
2019-05-03T06:56:53.088Z,9.10
2019-05-03T06:59:26.874Z,9.10
2019-05-03T07:02:21.956Z,9.10
2019-05-03T07:04:51.402Z,8.80
2019-05-03T07:07:41.667Z,8.80
2019-05-03T07:10:17.651Z,8.80
2019-05-03T07:12:58.187Z,8.50
2019-05-03T07:15:26.431Z,8.50
2019-05-03T07:17:55.567Z,8.50
2019-05-03T07:20:25.448Z,8.60
2019-05-03T07:22:55.733Z,8.50
2019-05-03T07:25:25.650Z,8.50
2019-05-03T07:27:55.593Z,8.60
2019-05-03T07:30:24.883Z,8.60
2019-05-03T07:32:58.714Z,8.40
2019-05-03T07:35:26.927Z,8.40
2019-05-03T07:37:55.462Z,8.50
2019-05-03T07:40:25.353Z,8.50
2019-05-03T07:42:56.524Z,8.80
2019-05-03T07:45:25.442Z,8.80
2019-05-03T07:47:55.882Z,8.80
2019-05-03T07:50:25.790Z,8.90
2019-05-03T07:52:55.562Z,8.80
2019-05-03T07:55:45.494Z,9.20
2019-05-03T07:58:19.483Z,9.50
2019-05-03T08:01:02.563Z,9.70
2019-05-03T08:03:19.202Z,10.00
2019-05-03T08:05:47.503Z,10.20
2019-05-03T08:08:15.730Z,10.10
2019-05-03T08:10:45.019Z,9.80
2019-05-03T08:13:15.229Z,9.70
2019-05-03T08:15:45.233Z,9.90
2019-05-03T08:18:15.310Z,10.10
2019-05-03T08:20:45.113Z,10.00
2019-05-03T08:23:26.310Z,10.10
2019-05-03T08:25:44.624Z,10.50
2019-05-03T08:28:14.601Z,10.50
2019-05-03T08:31:11.838Z,10.30
2019-05-03T08:34:11.075Z,10.30
2019-05-03T08:37:00.102Z,10.30
2019-05-03T08:39:28.649Z,10.30
2019-05-03T08:41:59.507Z,10.40
2019-05-03T08:44:27.992Z,10.30
2019-05-03T08:46:56.486Z,10.30
2019-05-03T08:49:25.471Z,10.30
2019-05-03T08:51:55.194Z,10.10
2019-05-03T08:54:25.409Z,10.10
2019-05-03T08:56:55.493Z,10.00
2019-05-03T08:59:29.794Z,10.30
2019-05-03T09:01:55.015Z,10.60
2019-05-03T09:04:36.078Z,11.00
2019-05-03T09:06:55.014Z,10.80
2019-05-03T09:09:39.147Z,10.40
2019-05-03T09:12:07.470Z,10.20
2019-05-03T09:14:42.684Z,10.10
2019-05-03T09:17:05.831Z,10.00
2019-05-03T09:19:34.724Z,10.00
2019-05-03T09:22:05.933Z,10.20
2019-05-03T09:24:35.190Z,10.40
2019-05-03T09:27:05.302Z,10.60
2019-05-03T09:29:41.041Z,10.80
2019-05-03T09:32:05.234Z,10.80
2019-05-03T09:34:35.103Z,10.40
2019-05-03T09:37:04.790Z,10.50
2019-05-03T09:39:35.326Z,10.40
2019-05-03T09:42:04.709Z,10.40
2019-05-03T09:44:35.017Z,10.10
2019-05-03T09:47:05.407Z,10.00
2019-05-03T09:49:34.778Z,10.00
2019-05-03T09:52:08.098Z,10.10
2019-05-03T09:54:42.606Z,10.30
2019-05-03T09:57:10.850Z,10.10
2019-05-03T09:59:39.110Z,10.30
2019-05-03T10:02:07.384Z,10.50
2019-05-03T10:04:36.580Z,10.70
2019-05-03T10:07:05.176Z,10.60
2019-05-03T10:09:35.349Z,10.30
2019-05-03T10:12:05.887Z,10.30
2019-05-03T10:14:34.231Z,10.20
2019-05-03T10:17:21.679Z,10.30
2019-05-03T10:19:49.957Z,10.30
2019-05-03T10:22:19.922Z,10.70
2019-05-03T10:24:48.679Z,10.70
2019-05-03T10:27:16.974Z,10.90
2019-05-03T10:29:45.198Z,10.80
2019-05-03T10:32:20.808Z,10.70
2019-05-03T10:35:01.127Z,10.50
2019-05-03T10:37:35.623Z,10.70
2019-05-03T10:40:07.791Z,10.40
2019-05-03T10:42:35.330Z,10.40
2019-05-03T10:45:04.618Z,10.10
2019-05-03T10:47:35.027Z,10.30
2019-05-03T10:50:04.714Z,10.60
2019-05-03T10:52:38.395Z,10.80
2019-05-03T10:55:08.211Z,11.20
2019-05-03T10:57:39.113Z,11.20
2019-05-03T11:00:09.147Z,11.30
2019-05-03T11:02:50.823Z,11.20
2019-05-03T11:05:19.063Z,11.00
2019-05-03T11:07:47.663Z,10.90
2019-05-03T11:10:16.377Z,10.80
2019-05-03T11:12:44.753Z,10.60
2019-05-03T11:15:15.016Z,10.40
2019-05-03T11:17:45.493Z,10.40
2019-05-03T11:20:28.040Z,10.60
2019-05-03T11:22:45.403Z,10.80
2019-05-03T11:25:13.645Z,11.10
2019-05-03T11:27:47.294Z,10.80
2019-05-03T11:30:15.798Z,10.70
2019-05-03T11:32:52.315Z,10.70
2019-05-03T11:35:29.351Z,10.50
2019-05-03T11:38:16.716Z,10.30
2019-05-03T11:40:45.487Z,10.50
2019-05-03T11:43:15.273Z,10.50
2019-05-03T11:45:44.845Z,10.50
2019-05-03T11:48:14.825Z,10.70
2019-05-03T11:50:45.398Z,10.80
2019-05-03T11:53:15.169Z,10.80
2019-05-03T11:55:46.401Z,10.50
2019-05-03T11:58:26.967Z,10.40
2019-05-03T12:01:13.012Z,10.50
2019-05-03T12:03:38.310Z,10.80
2019-05-03T12:06:08.148Z,11.00
2019-05-03T12:08:50.277Z,11.20
2019-05-03T12:11:18.632Z,11.10
2019-05-03T12:13:46.967Z,11.20
2019-05-03T12:16:21.324Z,11.30
2019-05-03T12:18:52.552Z,11.40
2019-05-03T12:21:17.961Z,11.40
2019-05-03T12:23:46.586Z,11.60
2019-05-03T12:26:17.279Z,11.50
2019-05-03T12:28:45.298Z,11.80
2019-05-03T12:31:28.247Z,11.90
2019-05-03T12:33:45.740Z,11.50
2019-05-03T12:36:15.486Z,11.30
2019-05-03T12:38:43.651Z,11.70
2019-05-03T12:41:11.922Z,12.00
2019-05-03T12:43:40.203Z,11.90
2019-05-03T12:46:08.543Z,11.90
2019-05-03T12:48:36.857Z,11.50
2019-05-03T12:51:06.560Z,11.60
2019-05-03T12:53:35.488Z,11.50
2019-05-03T12:56:09.709Z,11.40
2019-05-03T12:58:49.132Z,11.50
2019-05-03T13:01:42.369Z,11.50
2019-05-03T13:04:16.515Z,11.90
2019-05-03T13:06:49.900Z,12.00
2019-05-03T13:09:18.237Z,11.80
2019-05-03T13:11:54.808Z,11.90
2019-05-03T13:14:18.201Z,12.10
2019-05-03T13:16:46.604Z,12.20
2019-05-03T13:19:15.258Z,12.30
2019-05-03T13:21:44.992Z,12.10
2019-05-03T13:24:22.792Z,12.10
2019-05-03T13:26:45.597Z,12.30
2019-05-03T13:29:15.291Z,12.40
2019-05-03T13:31:56.832Z,12.40
2019-05-03T13:34:15.580Z,12.70
2019-05-03T13:36:45.625Z,12.80
2019-05-03T13:39:14.760Z,12.70
2019-05-03T13:41:45.515Z,12.70
2019-05-03T13:44:15.583Z,12.60
2019-05-03T13:46:44.719Z,12.40
2019-05-03T13:49:15.862Z,12.40
2019-05-03T13:51:46.367Z,12.20
2019-05-03T13:54:15.072Z,12.20
2019-05-03T13:56:43.900Z,12.30
2019-05-03T13:59:18.950Z,12.40
2019-05-03T14:01:42.312Z,12.20
2019-05-03T14:04:10.604Z,12.20
2019-05-03T14:06:38.983Z,12.30
2019-05-03T14:09:07.763Z,11.80
2019-05-03T14:11:36.069Z,11.60
2019-05-03T14:14:04.774Z,11.40
2019-05-03T14:16:33.281Z,11.30
2019-05-03T14:19:07.297Z,11.20
2019-05-03T14:21:42.548Z,11.40
2019-05-03T14:24:12.464Z,11.60
2019-05-03T14:26:44.764Z,11.50
2019-05-03T14:29:15.100Z,11.60
2019-05-03T14:31:45.368Z,11.70
2019-05-03T14:34:16.996Z,11.60
2019-05-03T14:36:44.967Z,11.40
2019-05-03T14:39:15.064Z,11.40
2019-05-03T14:41:46.478Z,11.40
2019-05-03T14:44:15.605Z,11.40
2019-05-03T14:46:45.684Z,11.50
2019-05-03T14:49:16.123Z,11.70
2019-05-03T14:51:45.556Z,11.90
2019-05-03T14:54:14.513Z,12.00
2019-05-03T14:57:02.501Z,11.80
2019-05-03T14:59:48.853Z,12.00
2019-05-03T15:02:43.487Z,11.90
2019-05-03T15:05:08.527Z,11.70
2019-05-03T15:07:36.839Z,11.80
2019-05-03T15:10:06.283Z,11.80
2019-05-03T15:12:35.953Z,11.80
2019-05-03T15:15:06.235Z,11.80
2019-05-03T15:17:35.040Z,11.60
2019-05-03T15:20:05.979Z,11.50
2019-05-03T15:22:34.693Z,11.70
2019-05-03T15:25:04.981Z,11.40
2019-05-03T15:27:35.257Z,11.60
2019-05-03T15:30:04.822Z,11.60
2019-05-03T15:32:35.363Z,11.50
2019-05-03T15:35:04.758Z,11.70
2019-05-03T15:37:35.633Z,11.50
2019-05-03T15:40:06.036Z,11.20
2019-05-03T15:42:34.470Z,11.30
2019-05-03T15:45:20.437Z,11.30
2019-05-03T15:48:06.621Z,11.40
2019-05-03T15:50:35.575Z,11.50
2019-05-03T15:53:04.714Z,11.40
2019-05-03T15:55:34.843Z,11.30
2019-05-03T15:58:04.781Z,11.30
2019-05-03T16:00:33.574Z,11.50
2019-05-03T16:03:08.143Z,11.60
2019-05-03T16:05:31.930Z,11.70
2019-05-03T16:08:00.451Z,11.60
2019-05-03T16:10:32.064Z,11.60
2019-05-03T16:13:00.422Z,11.40
2019-05-03T16:15:28.768Z,11.50
2019-05-03T16:17:57.044Z,11.60
2019-05-03T16:20:27.799Z,11.50
2019-05-03T16:22:56.113Z,11.60
2019-05-03T16:25:25.235Z,11.40
2019-05-03T16:27:59.797Z,11.30
2019-05-03T16:30:39.123Z,11.30
2019-05-03T16:33:07.736Z,11.20
2019-05-03T16:35:37.941Z,11.10
2019-05-03T16:38:06.258Z,11.10
2019-05-03T16:40:34.697Z,11.20
2019-05-03T16:43:03.045Z,11.20
2019-05-03T16:45:31.352Z,11.20
2019-05-03T16:47:59.634Z,11.00
2019-05-03T16:50:29.022Z,10.90
2019-05-03T16:52:57.356Z,10.90
2019-05-03T16:55:25.957Z,11.00
2019-05-03T16:57:54.994Z,11.00
2019-05-03T17:00:24.987Z,11.00
2019-05-03T17:02:55.126Z,11.10
2019-05-03T17:05:41.455Z,11.00
2019-05-03T17:08:31.192Z,11.00
2019-05-03T17:11:00.791Z,10.90
2019-05-03T17:13:31.023Z,10.90
2019-05-03T17:15:59.433Z,10.80
2019-05-03T17:18:28.080Z,10.80
2019-05-03T17:20:56.461Z,10.80
2019-05-03T17:23:25.129Z,10.70
2019-05-03T17:25:53.679Z,10.80
2019-05-03T17:28:22.138Z,10.80
2019-05-03T17:30:51.273Z,10.80
2019-05-03T17:33:19.630Z,10.80
2019-05-03T17:35:47.911Z,10.60
2019-05-03T17:38:16.355Z,10.60
2019-05-03T17:40:59.921Z,10.60
2019-05-03T17:43:37.932Z,10.60
2019-05-03T17:46:07.088Z,10.50
2019-05-03T17:48:35.379Z,10.40
2019-05-03T17:51:04.442Z,10.40
2019-05-03T17:53:52.155Z,10.40
2019-05-03T17:56:39.624Z,10.30
2019-05-03T17:59:34.941Z,10.30
2019-05-03T18:02:20.515Z,10.30
2019-05-03T18:05:16.695Z,10.10
2019-05-03T18:08:10.421Z,10.10
2019-05-03T18:10:39.813Z,10.10
2019-05-03T18:13:08.197Z,10.10
2019-05-03T18:15:36.672Z,10.10
2019-05-03T18:18:05.334Z,10.10
2019-05-03T18:20:34.613Z,9.90
2019-05-03T18:23:04.986Z,9.90
2019-05-03T18:25:35.337Z,9.80
2019-05-03T18:28:03.564Z,9.90
2019-05-03T18:30:32.285Z,9.80
2019-05-03T18:33:01.579Z,9.90
2019-05-03T18:35:30.902Z,9.80
2019-05-03T18:37:59.286Z,9.80
2019-05-03T18:40:28.203Z,9.80
2019-05-03T18:43:02.161Z,9.70
2019-05-03T18:45:45.939Z,9.70
2019-05-03T18:48:14.459Z,9.70
2019-05-03T18:50:42.972Z,9.60
2019-05-03T18:53:11.497Z,9.60
2019-05-03T18:55:40.017Z,9.60
2019-05-03T18:58:08.618Z,9.50
2019-05-03T19:00:39.812Z,9.60
2019-05-03T19:03:08.164Z,9.60
2019-05-03T19:05:37.799Z,9.50
2019-05-03T19:08:15.303Z,9.50
2019-05-03T19:10:51.264Z,9.50
2019-05-03T19:13:44.790Z,9.50
2019-05-03T19:16:25.402Z,9.60
2019-05-03T19:18:55.006Z,9.60
2019-05-03T19:21:24.394Z,9.50
2019-05-03T19:23:56.494Z,9.50
2019-05-03T19:26:24.967Z,9.50
2019-05-03T19:28:54.940Z,9.50
2019-05-03T19:31:25.102Z,9.50
2019-05-03T19:33:55.069Z,9.50
2019-05-03T19:36:23.472Z,9.40
2019-05-03T19:38:51.889Z,9.40
2019-05-03T19:41:20.361Z,9.40
2019-05-03T19:43:49.135Z,9.40
2019-05-03T19:46:17.670Z,9.40
2019-05-03T19:48:46.120Z,9.30
2019-05-03T19:51:14.856Z,9.30
2019-05-03T19:53:51.487Z,9.40
2019-05-03T19:56:22.409Z,9.50
2019-05-03T19:58:55.247Z,9.40
2019-05-03T20:01:42.542Z,9.40
2019-05-03T20:04:44.452Z,9.50
2019-05-03T20:07:39.698Z,9.50
2019-05-03T20:10:08.805Z,9.60
2019-05-03T20:12:38.173Z,9.50
2019-05-03T20:15:06.711Z,9.40
2019-05-03T20:17:35.881Z,9.40
2019-05-03T20:20:05.003Z,9.30
2019-05-03T20:22:35.228Z,9.20
2019-05-03T20:25:04.797Z,9.30
2019-05-03T20:27:35.259Z,9.30
2019-05-03T20:30:05.756Z,9.30
2019-05-03T20:32:35.227Z,9.40
2019-05-03T20:35:13.047Z,9.30
2019-05-03T20:37:34.376Z,9.20
2019-05-03T20:40:04.995Z,9.30
2019-05-03T20:42:51.766Z,9.30
2019-05-03T20:45:24.872Z,9.30
2019-05-03T20:47:56.040Z,9.20
2019-05-03T20:50:29.570Z,9.20
2019-05-03T20:53:01.877Z,9.30
2019-05-03T20:55:34.701Z,9.30
2019-05-03T20:58:08.689Z,9.20
2019-05-03T21:00:49.741Z,9.20
2019-05-03T21:03:20.395Z,9.00
2019-05-03T21:05:55.360Z,8.90
2019-05-03T21:08:26.636Z,8.80
2019-05-03T21:10:58.318Z,8.60
2019-05-03T21:13:41.724Z,8.60
2019-05-03T21:16:15.454Z,8.60
2019-05-03T21:19:25.988Z,8.60
2019-05-03T21:22:05.563Z,8.50
2019-05-03T21:24:56.163Z,8.50
2019-05-03T21:27:34.945Z,8.40
2019-05-03T21:30:06.717Z,8.50
2019-05-03T21:32:39.010Z,8.40
2019-05-03T21:35:11.513Z,8.40
2019-05-03T21:37:42.106Z,8.30
2019-05-03T21:40:13.028Z,8.10
2019-05-03T21:42:49.369Z,8.00
2019-05-03T21:45:25.136Z,8.00
2019-05-03T21:48:04.943Z,8.00
2019-05-03T21:50:36.838Z,7.90
2019-05-03T21:53:06.741Z,7.80
2019-05-03T21:55:38.992Z,7.70
2019-05-03T21:58:08.706Z,7.80
2019-05-03T22:00:55.455Z,7.80
2019-05-03T22:03:25.808Z,7.70
2019-05-03T22:05:57.906Z,7.70
2019-05-03T22:08:27.467Z,7.60
2019-05-03T22:10:57.915Z,7.60
2019-05-03T22:13:28.064Z,7.60
2019-05-03T22:16:02.137Z,7.70
2019-05-03T22:18:31.446Z,7.70
2019-05-03T22:21:18.870Z,7.70
2019-05-03T22:24:09.386Z,7.50
2019-05-03T22:27:00.772Z,7.40
2019-05-03T22:29:29.086Z,7.30
2019-05-03T22:31:57.746Z,7.30
2019-05-03T22:34:26.234Z,7.30
2019-05-03T22:36:55.000Z,7.40
2019-05-03T22:39:24.971Z,7.40
2019-05-03T22:41:53.600Z,7.40
2019-05-03T22:44:22.424Z,7.40
2019-05-03T22:46:50.823Z,7.40
2019-05-03T22:49:19.502Z,7.30
2019-05-03T22:51:48.167Z,7.10
2019-05-03T22:54:16.733Z,7.20
2019-05-03T22:56:45.430Z,7.30
2019-05-03T22:59:14.718Z,7.30
2019-05-03T23:01:45.543Z,7.30
2019-05-03T23:04:14.927Z,7.30
2019-05-03T23:06:46.693Z,7.30
2019-05-03T23:09:15.669Z,7.20
2019-05-03T23:11:44.994Z,7.20
2019-05-03T23:14:15.122Z,7.20
2019-05-03T23:16:44.817Z,7.20
2019-05-03T23:19:14.998Z,7.20
2019-05-03T23:21:54.317Z,7.10
2019-05-03T23:24:22.151Z,7.00
2019-05-03T23:26:50.441Z,6.70
2019-05-03T23:29:18.743Z,6.60
2019-05-03T23:31:47.011Z,6.50
2019-05-03T23:34:15.277Z,6.50
2019-05-03T23:36:45.558Z,6.60
2019-05-03T23:39:14.450Z,6.70
2019-05-03T23:41:43.010Z,6.60
2019-05-03T23:44:11.292Z,6.60
2019-05-03T23:46:47.553Z,6.50
2019-05-03T23:49:15.786Z,6.50
2019-05-03T23:51:48.224Z,6.40
2019-05-03T23:54:16.749Z,6.30
2019-05-03T23:56:45.840Z,6.30
2019-05-03T23:59:14.845Z,6.30
